Time;durP1;ratioP1;P1;durP2;ratioP2;P2;SDS_P1;SDS_P2;PMS_P1;PMS_P2;Temp;Humidity;BMP_temperature;BMP_pressure;BME280_temperature;BME280_humidity;BME280_pressure;Samples;Min_cycle;Max_cycle;Signal;HPM_P1;HPM_P2
2022/01/08 12:12:10;;;;;;;7.97;2.60;;;;;;;8.97;53.22;93439.31;5006368;28;20353;-72
2022/01/08 12:14:36;;;;;;;4.40;2.40;;;;;;;8.88;53.45;93443.84;5024493;28;20101;-72
2022/01/08 12:17:14;;;;;;;3.38;2.03;;;;;;;8.82;53.91;93440.56;5024707;28;20241;-72
2022/01/08 12:19:45;;;;;;;8.32;4.03;;;;;;;8.78;54.14;93428.22;5024341;28;20335;-72
2022/01/08 12:22:20;;;;;;;7.80;4.65;;;;;;;8.66;53.99;93428.03;5024476;28;20030;-72
2022/01/08 12:25:00;;;;;;;5.82;2.90;;;;;;;8.63;54.44;93430.22;5024319;28;20033;-72
2022/01/08 12:27:45;;;;;;;9.85;2.83;;;;;;;8.59;54.42;93431.16;5024232;28;20025;-73
2022/01/08 12:30:17;;;;;;;5.60;3.20;;;;;;;8.50;55.27;93433.78;5024175;28;20029;-73
2022/01/08 12:32:48;;;;;;;4.40;3.00;;;;;;;8.48;55.67;93429.88;5024132;28;20021;-72
2022/01/08 12:35:18;;;;;;;5.75;2.80;;;;;;;8.53;55.44;93430.53;5024018;28;20018;-72
2022/01/08 12:37:52;;;;;;;5.07;2.88;;;;;;;8.52;55.04;93431.59;5023806;28;20037;-72
2022/01/08 12:40:39;;;;;;;3.65;2.45;;;;;;;8.57;54.70;93434.13;5024065;28;20216;-73
2022/01/08 12:43:23;;;;;;;5.35;2.35;;;;;;;8.62;54.71;93433.97;5023739;28;20029;-72
2022/01/08 12:45:50;;;;;;;5.90;2.33;;;;;;;8.68;54.60;93439.13;5023779;28;20048;-74
2022/01/08 12:48:19;;;;;;;7.10;2.63;;;;;;;8.78;53.95;93436.97;5023472;28;20029;-74
2022/01/08 12:50:45;;;;;;;5.05;2.05;;;;;;;8.73;54.11;93433.66;5023439;28;20030;-74
2022/01/08 12:53:19;;;;;;;6.50;2.92;;;;;;;8.67;54.19;93430.41;5023732;28;20374;-74
2022/01/08 12:55:53;;;;;;;4.47;2.55;;;;;;;8.65;54.14;93437.91;5023418;28;20108;-74
2022/01/08 12:58:25;;;;;;;9.65;3.13;;;;;;;8.55;54.66;93443.50;5023539;28;20216;-74
2022/01/08 13:01:08;;;;;;;8.00;2.30;;;;;;;8.49;54.54;93434.91;5023236;28;20513;-74
2022/01/08 13:03:35;;;;;;;6.07;2.50;;;;;;;8.46;54.76;93434.72;5023557;28;20263;-74
2022/01/08 13:06:10;;;;;;;7.07;3.35;;;;;;;8.44;55.19;93437.69;5023687;28;20022;-74
2022/01/08 13:08:36;;;;;;;9.48;3.55;;;;;;;8.42;55.02;93431.91;5023308;28;20045;-74
2022/01/08 13:11:04;;;;;;;5.63;3.00;;;;;;;8.40;55.29;93434.81;5023591;28;20200;-75
2022/01/08 13:13:46;;;;;;;7.55;2.90;;;;;;;8.29;55.54;93443.41;5023477;28;20083;-74
2022/01/08 13:16:19;;;;;;;10.02;2.75;;;;;;;8.23;55.38;93435.56;5023470;28;20317;-74
2022/01/08 13:18:52;;;;;;;32.75;16.13;;;;;;;8.13;55.79;93427.88;5023258;28;20029;-74
2022/01/08 13:21:18;;;;;;;5.85;3.03;;;;;;;8.09;56.14;93429.59;5023520;28;20022;-74
2022/01/08 13:23:47;;;;;;;3.85;2.40;;;;;;;8.00;56.31;93428.81;5023363;28;20045;-74
2022/01/08 13:26:13;;;;;;;5.25;2.60;;;;;;;7.99;56.69;93417.38;5038431;28;20021;-74
2022/01/08 13:28:41;;;;;;;7.05;3.50;;;;;;;8.02;56.56;93427.41;5023386;28;20021;-73
2022/01/08 13:31:07;;;;;;;5.63;3.10;;;;;;;7.94;57.01;93411.44;5023046;28;20025;-74
2022/01/08 13:33:32;;;;;;;8.27;3.85;;;;;;;7.87;56.61;93408.44;5023289;28;20034;-74
2022/01/08 13:36:06;;;;;;;7.75;4.78;;;;;;;7.89;56.62;93412.34;5023348;28;20041;-74
2022/01/08 13:38:34;;;;;;;7.97;4.22;;;;;;;7.84;57.09;93415.94;5023372;28;20120;-74
2022/01/08 13:41:17;;;;;;;8.18;4.60;;;;;;;7.87;57.19;93416.41;5023001;28;20068;-74
2022/01/08 13:44:12;;;;;;;4.95;2.75;;;;;;;7.86;56.71;93425.44;5023063;28;20052;-73
2022/01/08 13:46:38;;;;;;;4.82;2.80;;;;;;;7.83;57.22;93424.97;5022430;28;20038;-74
2022/01/08 13:49:07;;;;;;;10.93;3.50;;;;;;;7.76;57.42;93419.31;5022377;28;20029;-73
2022/01/08 13:51:36;;;;;;;6.95;3.40;;;;;;;7.70;57.37;93420.53;5022876;28;20026;-74
2022/01/08 13:54:04;;;;;;;6.07;3.10;;;;;;;7.57;57.77;93426.72;5023054;28;20224;-74
2022/01/08 13:56:31;;;;;;;7.22;3.30;;;;;;;7.54;57.79;93422.03;5022987;28;20144;-73
2022/01/08 13:59:08;;;;;;;8.68;3.88;;;;;;;7.48;58.35;93421.38;5022704;28;20029;-74
2022/01/08 14:01:47;;;;;;;10.73;3.95;;;;;;;7.42;58.87;93423.34;5022800;28;20037;-73
2022/01/08 14:04:14;;;;;;;10.20;4.13;;;;;;;7.32;59.11;93415.66;5037856;28;20036;-73
2022/01/08 14:06:41;;;;;;;8.63;3.90;;;;;;;7.23;59.34;93417.50;5022469;28;20026;-74
2022/01/08 14:09:09;;;;;;;9.50;3.65;;;;;;;7.17;59.58;93419.47;5022663;28;20032;-74
2022/01/08 14:11:35;;;;;;;9.02;4.38;;;;;;;7.18;59.72;93425.53;5022461;28;20038;-72
2022/01/08 14:14:01;;;;;;;7.88;3.95;;;;;;;7.14;59.97;93429.88;5037744;28;20064;-72
2022/01/08 14:16:31;;;;;;;10.75;4.20;;;;;;;7.15;59.75;93431.47;5022372;28;20231;-73
2022/01/08 14:19:08;;;;;;;10.20;4.30;;;;;;;7.12;59.99;93432.81;5022389;28;20093;-74
2022/01/08 14:21:34;;;;;;;8.77;4.15;;;;;;;7.11;59.70;93418.03;5022725;28;20335;-73
2022/01/08 14:24:19;;;;;;;9.75;4.30;;;;;;;7.12;59.84;93424.09;5038059;28;20104;-73
2022/01/08 14:27:00;;;;;;;10.07;3.85;;;;;;;7.10;59.90;93418.31;5022502;28;20261;-73
2022/01/08 14:29:26;;;;;;;9.40;3.70;;;;;;;7.06;59.88;93412.06;5022530;28;20025;-73
2022/01/08 14:31:57;;;;;;;7.90;3.90;;;;;;;7.01;60.24;93428.88;5022479;28;20026;-73
2022/01/08 14:34:23;;;;;;;7.32;3.65;;;;;;;6.96;60.41;93418.38;5022576;28;20025;-73
2022/01/08 14:36:57;;;;;;;11.13;3.17;;;;;;;6.89;60.93;93423.31;5022354;28;20096;-73
2022/01/08 14:39:42;;;;;;;8.98;3.97;;;;;;;6.81;61.38;93424.81;5022386;28;20092;-73
2022/01/08 14:42:11;;;;;;;10.45;3.95;;;;;;;6.78;61.17;93423.56;5022401;28;20088;-73
2022/01/08 14:44:39;;;;;;;9.27;4.30;;;;;;;6.70;61.42;93418.19;5022245;28;20025;-73
2022/01/08 14:47:05;;;;;;;7.03;3.20;;;;;;;6.66;61.42;93419.88;5022478;28;20026;-73
2022/01/08 14:49:31;;;;;;;6.30;3.40;;;;;;;6.60;61.68;93419.19;5022655;28;20030;-73
2022/01/08 14:51:56;;;;;;;7.25;3.60;;;;;;;6.49;62.07;93423.91;5022478;28;20085;-73
2022/01/08 14:54:31;;;;;;;12.15;3.33;;;;;;;6.48;62.20;93425.00;5022302;28;20239;-73
2022/01/08 14:56:57;;;;;;;9.02;3.40;;;;;;;6.48;62.26;93414.41;5022117;28;20052;-73
2022/01/08 14:59:23;;;;;;;5.00;2.78;;;;;;;6.47;61.97;93418.13;5022447;28;20739;-73
2022/01/08 15:01:48;;;;;;;6.40;3.00;;;;;;;6.45;61.77;93414.22;5024342;28;20022;-73
2022/01/08 15:04:14;;;;;;;6.63;3.08;;;;;;;6.37;62.14;93413.03;5026067;28;20022;-73
2022/01/08 15:06:39;;;;;;;6.07;2.80;;;;;;;6.33;62.14;93417.38;5025875;28;20018;-73
2022/01/08 15:09:05;;;;;;;7.82;2.97;;;;;;;6.22;62.71;93409.63;5025756;28;20038;-73
2022/01/08 15:11:31;;;;;;;7.65;3.15;;;;;;;6.21;62.91;93415.25;5025919;28;20022;-75
2022/01/08 15:13:56;;;;;;;12.13;4.05;;;;;;;6.15;62.75;93411.91;5025574;28;20087;-74
2022/01/08 15:16:23;;;;;;;12.10;2.92;;;;;;;6.14;62.97;93405.03;5025251;28;20396;-73
2022/01/08 15:18:48;;;;;;;5.50;3.00;;;;;;;6.08;63.31;93411.50;5025180;28;20220;-74
2022/01/08 15:21:14;;;;;;;5.07;3.30;;;;;;;6.05;63.11;93414.00;5025446;28;20022;-74
2022/01/08 15:23:40;;;;;;;7.32;3.30;;;;;;;6.02;63.61;93418.78;5025171;28;20018;-74
2022/01/08 15:26:06;;;;;;;8.40;4.28;;;;;;;6.01;63.48;93411.16;5025475;28;20014;-73
2022/01/08 15:28:32;;;;;;;7.13;3.90;;;;;;;6.00;63.54;93417.50;5025542;28;20021;-72
2022/01/08 15:30:59;;;;;;;7.05;3.28;;;;;;;5.94;63.71;93405.41;5025214;28;20101;-75
2022/01/08 15:33:25;;;;;;;9.32;3.95;;;;;;;5.85;64.18;93404.56;5025048;28;20060;-75
2022/01/08 15:35:51;;;;;;;6.10;3.03;;;;;;;5.81;64.14;93399.84;5024965;28;20031;-75
2022/01/08 15:38:17;;;;;;;9.90;3.33;;;;;;;5.80;64.46;93400.94;5025064;28;20092;-74
2022/01/08 15:40:42;;;;;;;11.95;3.60;;;;;;;5.76;64.40;93394.66;5025127;28;20211;-74
2022/01/08 15:43:08;;;;;;;7.63;3.70;;;;;;;5.70;64.50;93401.13;5025049;28;20041;-73
2022/01/08 15:45:34;;;;;;;23.80;6.38;;;;;;;5.65;64.77;93403.06;5025084;28;20280;-74
2022/01/08 15:48:02;;;;;;;5.53;3.22;;;;;;;5.63;64.98;93400.72;5024906;28;20215;-74
2022/01/08 15:50:28;;;;;;;11.05;3.95;;;;;;;5.64;64.97;93412.88;5024800;28;20026;-75
2022/01/08 15:52:54;;;;;;;6.07;3.47;;;;;;;5.55;64.94;93393.47;5024811;28;20291;-73
2022/01/08 15:55:20;;;;;;;6.80;3.83;;;;;;;5.61;64.91;93397.56;5024755;28;20025;-75
2022/01/08 15:57:46;;;;;;;7.43;3.63;;;;;;;5.61;64.79;93397.56;5024795;28;20113;-73
2022/01/08 16:00:12;;;;;;;10.93;3.38;;;;;;;5.56;64.85;93387.88;5024779;28;20022;-74
2022/01/08 16:02:38;;;;;;;7.85;3.80;;;;;;;5.55;64.66;93378.38;5039712;28;20395;-74
2022/01/08 16:05:03;;;;;;;9.70;4.03;;;;;;;5.52;64.83;93388.78;5024721;28;20014;-74
2022/01/08 16:07:29;;;;;;;8.55;4.25;;;;;;;5.46;64.96;93379.38;5024975;28;20021;-74
2022/01/08 16:09:54;;;;;;;13.93;5.30;;;;;;;5.42;65.48;93382.59;5025084;28;20263;-74
2022/01/08 16:12:19;;;;;;;11.80;5.05;;;;;;;5.40;65.32;93376.81;5024051;28;20042;-74
2022/01/08 16:14:45;;;;;;;10.50;4.53;;;;;;;5.44;65.49;93379.66;5024852;28;20030;-74
2022/01/08 16:17:10;;;;;;;8.50;4.30;;;;;;;5.46;65.30;93379.38;5024909;28;20026;-74
2022/01/08 16:19:35;;;;;;;10.60;4.90;;;;;;;5.40;65.29;93387.38;5024385;28;20335;-74
2022/01/08 16:22:01;;;;;;;11.32;5.07;;;;;;;5.30;65.68;93387.56;5024656;28;20343;-74
2022/01/08 16:24:26;;;;;;;22.70;6.75;;;;;;;5.25;66.34;93376.28;5024657;28;20010;-74
2022/01/08 16:26:52;;;;;;;11.68;6.13;;;;;;;5.24;66.08;93380.78;5024637;28;20017;-74
2022/01/08 16:29:18;;;;;;;16.27;6.40;;;;;;;5.22;66.15;93383.72;5024305;28;20024;-74
2022/01/08 16:31:44;;;;;;;9.80;5.32;;;;;;;5.19;66.23;93381.66;5024338;28;20033;-73
2022/01/08 16:34:10;;;;;;;15.00;6.30;;;;;;;5.21;65.83;93378.72;5024333;28;20022;-74
2022/01/08 16:36:36;;;;;;;11.65;5.68;;;;;;;5.21;66.07;93370.78;5039456;28;20049;-74
2022/01/08 16:39:02;;;;;;;13.05;6.03;;;;;;;5.24;65.96;93378.16;5024460;28;20017;-74
2022/01/08 16:41:28;;;;;;;12.77;6.25;;;;;;;5.26;66.14;93376.00;5024312;28;20028;-74
2022/01/08 16:43:53;;;;;;;12.32;6.13;;;;;;;5.28;65.70;93373.84;5024066;28;20017;-74
2022/01/08 16:46:19;;;;;;;13.13;6.82;;;;;;;5.30;65.60;93377.00;5024173;28;20080;-75
2022/01/08 16:48:45;;;;;;;13.18;6.70;;;;;;;5.29;65.42;93379.91;5024311;28;20267;-74
2022/01/08 16:51:11;;;;;;;12.65;5.70;;;;;;;5.25;65.56;93379.72;5024196;28;20097;-74
2022/01/08 16:53:39;;;;;;;11.95;6.38;;;;;;;5.29;65.46;93380.72;5024016;28;20208;-74
2022/01/08 16:56:08;;;;;;;16.83;6.68;;;;;;;5.29;65.50;93379.91;5024266;28;20033;-74
2022/01/08 16:58:34;;;;;;;12.50;6.78;;;;;;;5.32;65.37;93382.75;5024166;28;20025;-75
2022/01/08 17:00:59;;;;;;;11.95;6.25;;;;;;;5.30;65.55;93381.50;5024039;28;20093;-74
2022/01/08 17:03:25;;;;;;;13.00;5.68;;;;;;;5.33;65.32;93370.31;5023979;28;20343;-74
2022/01/08 17:05:50;;;;;;;9.05;5.28;;;;;;;5.33;65.07;93376.41;5038997;28;20220;-74
2022/01/08 17:08:16;;;;;;;8.55;5.20;;;;;;;5.35;65.12;93368.19;5023892;28;20017;-74
2022/01/08 17:10:41;;;;;;;8.23;4.88;;;;;;;5.32;65.11;93379.34;5023656;28;20024;-74
2022/01/08 17:13:08;;;;;;;13.93;6.22;;;;;;;5.31;65.07;93375.13;5023451;28;20045;-73
2022/01/08 17:15:33;;;;;;;27.10;12.68;;;;;;;5.24;65.28;93370.22;5023827;28;20021;-74
2022/01/08 17:18:00;;;;;;;15.73;8.05;;;;;;;5.21;65.76;93378.72;5023508;28;20189;-74
2022/01/08 17:20:28;;;;;;;18.58;10.40;;;;;;;5.21;65.95;93378.72;5023463;28;20057;-74
2022/01/08 17:22:54;;;;;;;11.48;6.88;;;;;;;5.23;65.83;93373.94;5023160;28;20049;-74
2022/01/08 17:25:20;;;;;;;17.50;7.05;;;;;;;5.25;65.75;93369.16;5022988;28;20313;-74
2022/01/08 17:27:45;;;;;;;16.55;9.07;;;;;;;5.28;65.86;93373.06;5023339;28;20033;-74
2022/01/08 17:30:12;;;;;;;14.50;7.32;;;;;;;5.25;66.00;93373.66;5023394;28;20030;-74
2022/01/08 17:32:38;;;;;;;18.88;8.48;;;;;;;5.23;66.13;93366.00;5023564;28;20228;-74
2022/01/08 17:35:04;;;;;;;15.82;7.95;;;;;;;5.23;66.38;93372.09;5023447;28;20036;-75
2022/01/08 17:37:29;;;;;;;22.65;7.57;;;;;;;5.26;66.23;93369.94;5023552;28;20030;-75
2022/01/08 17:39:55;;;;;;;17.23;9.10;;;;;;;5.25;66.24;93379.72;5023242;28;20026;-74
2022/01/08 17:42:20;;;;;;;19.13;7.97;;;;;;;5.21;66.35;93382.16;5023272;28;20057;-73
2022/01/08 17:44:46;;;;;;;18.77;8.05;;;;;;;5.20;66.25;93385.09;5023297;28;20107;-74
2022/01/08 17:47:11;;;;;;;22.00;10.38;;;;;;;5.19;66.12;93381.66;5023214;28;20351;-74
2022/01/08 17:49:37;;;;;;;26.10;12.70;;;;;;;5.18;66.06;93376.66;5023260;28;20070;-74
2022/01/08 17:52:04;;;;;;;27.65;13.70;;;;;;;5.16;65.91;93370.91;5023272;28;20402;-74
2022/01/08 17:54:30;;;;;;;34.28;15.00;;;;;;;5.17;65.57;93372.44;5022947;28;20024;-74
2022/01/08 17:56:56;;;;;;;32.20;14.05;;;;;;;5.19;64.72;93367.66;5023201;28;20049;-74
2022/01/08 17:59:21;;;;;;;36.38;14.50;;;;;;;5.13;65.05;93366.97;5022918;28;20018;-74
2022/01/08 18:01:47;;;;;;;30.08;13.65;;;;;;;5.12;65.11;93365.41;5023079;28;20092;-74
2022/01/08 18:04:13;;;;;;;30.88;15.15;;;;;;;5.13;65.54;93360.91;5023010;28;20216;-74
2022/01/08 18:06:39;;;;;;;29.42;14.00;;;;;;;5.11;65.53;93363.03;5023045;28;20022;-74
2022/01/08 18:09:05;;;;;;;30.65;13.57;;;;;;;5.09;65.17;93359.91;5022940;28;20028;-74
2022/01/08 18:11:31;;;;;;;32.85;15.57;;;;;;;5.06;65.32;93353.34;5022858;28;20088;-74
2022/01/08 18:13:57;;;;;;;36.17;14.70;;;;;;;4.99;65.48;93356.38;5022784;28;20021;-74
2022/01/08 18:16:23;;;;;;;34.38;14.48;;;;;;;4.98;65.73;93348.75;5022668;28;20097;-74
2022/01/08 18:18:48;;;;;;;26.92;12.60;;;;;;;4.94;65.81;93348.53;5022686;28;20315;-74
2022/01/08 18:21:14;;;;;;;28.90;11.80;;;;;;;4.94;65.61;93358.31;5022620;28;20022;-74
2022/01/08 18:23:39;;;;;;;27.67;11.48;;;;;;;4.92;65.52;93358.59;5022484;28;20064;-74
2022/01/08 18:26:05;;;;;;;21.15;9.93;;;;;;;4.88;65.34;93352.31;5022617;28;20327;-74
2022/01/08 18:28:30;;;;;;;20.63;9.40;;;;;;;4.85;65.66;93347.63;5022566;28;20030;-74
2022/01/08 18:30:56;;;;;;;18.27;8.65;;;;;;;4.79;65.57;93346.94;5022379;28;20151;-74
2022/01/08 18:33:21;;;;;;;17.58;7.80;;;;;;;4.77;65.70;93343.78;5022552;28;20093;-74
2022/01/08 18:35:47;;;;;;;20.42;9.02;;;;;;;4.70;65.92;93343.41;5024789;28;20381;-74
2022/01/08 18:38:12;;;;;;;21.25;9.65;;;;;;;4.68;66.19;93334.97;5025285;28;20053;-74
2022/01/08 18:40:37;;;;;;;22.38;9.68;;;;;;;4.63;65.89;93343.75;5026440;28;20029;-74
2022/01/08 18:43:03;;;;;;;19.02;10.18;;;;;;;4.59;66.11;93334.06;5026541;28;20022;-74
2022/01/08 18:45:33;;;;;;;22.95;9.88;;;;;;;4.56;66.38;93337.25;5026496;28;20343;-74
2022/01/08 18:47:59;;;;;;;28.90;10.50;;;;;;;4.53;66.70;93338.63;5026373;28;20133;-74
2022/01/08 18:50:25;;;;;;;20.48;8.98;;;;;;;4.52;66.61;93336.25;5025005;28;20371;-74
2022/01/08 18:52:51;;;;;;;15.25;7.90;;;;;;;4.47;66.91;93345.06;5026218;28;20060;-75
2022/01/08 18:55:18;;;;;;;25.08;10.23;;;;;;;4.47;66.47;93333.72;5026260;28;20029;-75
2022/01/08 18:57:43;;;;;;;19.85;10.05;;;;;;;4.45;67.06;93336.63;5026272;28;20022;-74
2022/01/08 19:00:12;;;;;;;28.88;10.57;;;;;;;4.38;67.51;93336.22;5026192;28;20124;-75
2022/01/08 19:02:40;;;;;;;26.63;12.20;;;;;;;4.37;67.26;93335.44;5026021;28;20022;-74
2022/01/08 19:05:06;;;;;;;24.73;11.77;;;;;;;4.39;67.63;93324.59;5026010;28;20021;-74
2022/01/08 19:07:31;;;;;;;20.23;9.65;;;;;;;4.42;67.76;93326.66;5025933;28;20024;-74
2022/01/08 19:09:56;;;;;;;14.77;8.18;;;;;;;4.45;67.84;93323.44;5025932;28;20040;-74
2022/01/08 19:12:22;;;;;;;17.63;8.45;;;;;;;4.48;67.71;93330.00;5025811;28;20065;-73
2022/01/08 19:14:47;;;;;;;19.88;9.10;;;;;;;4.51;67.79;93330.22;5040966;28;20041;-73
2022/01/08 19:17:13;;;;;;;18.45;9.25;;;;;;;4.54;67.28;93331.47;5025791;28;20202;-73
2022/01/08 19:19:38;;;;;;;16.58;8.43;;;;;;;4.57;67.37;93321.13;5025899;28;20041;-73
2022/01/08 19:22:04;;;;;;;17.30;9.07;;;;;;;4.59;67.17;93320.84;5025873;28;20022;-73
2022/01/08 19:24:30;;;;;;;16.90;7.80;;;;;;;4.58;67.57;93309.53;5025695;28;20021;-74
2022/01/08 19:26:55;;;;;;;18.73;7.75;;;;;;;4.60;67.59;93312.66;5025677;28;20028;-74
2022/01/08 19:29:21;;;;;;;17.20;8.20;;;;;;;4.62;66.83;93310.50;5041216;28;20030;-73
2022/01/08 19:31:47;;;;;;;20.13;8.35;;;;;;;4.58;66.76;93309.53;5025476;28;20072;-73
2022/01/08 19:34:13;;;;;;;18.15;8.40;;;;;;;4.58;67.27;93309.53;5025575;28;20221;-74
2022/01/08 19:36:39;;;;;;;21.75;8.80;;;;;;;4.56;67.19;93306.38;5025454;28;20026;-74
2022/01/08 19:39:06;;;;;;;17.15;8.35;;;;;;;4.56;67.44;93309.03;5025500;28;20030;-74
2022/01/08 19:41:32;;;;;;;23.40;9.57;;;;;;;4.57;67.37;93294.75;5025568;28;20097;-74
2022/01/08 19:43:58;;;;;;;21.75;8.85;;;;;;;4.60;67.55;93306.59;5025337;28;20028;-73
2022/01/08 19:46:24;;;;;;;19.90;9.02;;;;;;;4.59;67.74;93305.81;5039684;28;20324;-73
2022/01/08 19:48:50;;;;;;;20.80;8.32;;;;;;;4.58;67.73;93292.88;5025280;28;20062;-75
2022/01/08 19:51:15;;;;;;;19.30;8.38;;;;;;;4.58;68.36;93298.97;5025363;28;20102;-74
2022/01/08 19:53:41;;;;;;;15.93;7.53;;;;;;;4.62;68.29;93294.69;5025401;28;20017;-74
2022/01/08 19:56:06;;;;;;;16.45;7.00;;;;;;;4.65;68.00;93298.59;5025324;28;20263;-74
2022/01/08 19:58:32;;;;;;;13.35;6.68;;;;;;;4.60;67.85;93296.03;5025193;28;20076;-73
2022/01/08 20:00:58;;;;;;;13.73;6.57;;;;;;;4.55;68.26;93288.19;5024864;28;20099;-73
2022/01/08 20:03:24;;;;;;;17.52;8.25;;;;;;;4.54;68.02;93287.41;5025194;28;20021;-75
2022/01/08 20:05:52;;;;;;;19.58;10.07;;;;;;;4.53;67.34;93288.47;5025242;28;20319;-73
2022/01/08 20:08:18;;;;;;;19.10;10.02;;;;;;;4.50;66.91;93291.72;5024896;28;20041;-74
2022/01/08 20:10:44;;;;;;;19.23;8.10;;;;;;;4.41;67.29;93290.78;5024856;28;20024;-75
2022/01/08 20:13:10;;;;;;;19.30;9.40;;;;;;;4.42;67.39;93284.44;5024872;28;20040;-75
2022/01/08 20:15:36;;;;;;;20.27;9.38;;;;;;;4.43;67.57;93284.13;5024837;28;20253;-74
2022/01/08 20:18:02;;;;;;;16.38;8.77;;;;;;;4.44;67.39;93287.59;5024770;28;20022;-74
2022/01/08 20:20:27;;;;;;;21.02;10.35;;;;;;;4.43;67.16;93281.50;5024818;28;20018;-74
2022/01/08 20:22:53;;;;;;;17.90;8.77;;;;;;;4.44;66.91;93287.59;5024246;28;20256;-74
2022/01/08 20:25:18;;;;;;;14.02;7.70;;;;;;;4.37;67.50;93285.28;5024620;28;20113;-74
2022/01/08 20:27:44;;;;;;;19.23;8.85;;;;;;;4.33;67.32;93280.88;5024543;28;20025;-74
2022/01/08 20:30:11;;;;;;;18.05;8.02;;;;;;;4.34;67.58;93271.91;5024420;28;20029;-74
2022/01/08 20:32:37;;;;;;;17.77;8.98;;;;;;;4.33;67.34;93270.34;5024466;28;20097;-75
2022/01/08 20:35:04;;;;;;;15.95;8.20;;;;;;;4.29;67.37;93266.69;5024319;28;20028;-75
2022/01/08 20:37:30;;;;;;;19.00;8.38;;;;;;;4.22;67.71;93259.16;5024332;28;20189;-75
2022/01/08 20:39:55;;;;;;;19.30;8.70;;;;;;;4.23;67.78;93255.44;5024273;28;20073;-74
2022/01/08 20:42:21;;;;;;;15.65;7.35;;;;;;;4.20;67.77;93248.88;5024226;28;20029;-74
2022/01/08 20:44:46;;;;;;;20.40;9.05;;;;;;;4.22;67.44;93246.75;5024235;28;20212;-75
2022/01/08 20:47:12;;;;;;;23.55;11.32;;;;;;;4.23;67.04;93239.63;5024350;28;20068;-75
2022/01/08 20:49:37;;;;;;;29.15;13.25;;;;;;;4.27;67.21;93239.81;5024274;28;20328;-75
2022/01/08 20:52:04;;;;;;;33.53;15.35;;;;;;;4.22;67.05;93238.06;5024105;28;20097;-74
2022/01/08 20:54:29;;;;;;;30.08;14.23;;;;;;;4.20;67.14;93242.84;5039180;28;20033;-74
2022/01/08 20:56:55;;;;;;;34.13;16.75;;;;;;;4.14;66.96;93225.53;5023782;28;20104;-75
2022/01/08 20:59:21;;;;;;;32.05;15.70;;;;;;;4.07;67.11;93230.38;5023820;28;20025;-74
2022/01/08 21:01:47;;;;;;;32.97;16.27;;;;;;;4.07;66.62;93231.19;5024064;28;20029;-74
2022/01/08 21:04:14;;;;;;;43.28;18.85;;;;;;;4.03;66.42;93219.63;5023913;28;20217;-75
2022/01/08 21:06:40;;;;;;;47.35;17.98;;;;;;;3.99;66.82;93229.19;5022754;28;20079;-75
2022/01/08 21:09:06;;;;;;;46.67;19.45;;;;;;;3.97;66.80;93232.09;5023865;28;20088;-75
2022/01/08 21:11:31;;;;;;;31.95;13.77;;;;;;;3.92;66.79;93229.53;5023800;28;20054;-74
2022/01/08 21:13:57;;;;;;;21.05;9.95;;;;;;;3.87;67.96;93232.25;5023772;28;20193;-75
2022/01/08 21:16:22;;;;;;;20.88;10.13;;;;;;;3.86;68.26;93232.53;5023600;28;20269;-75
2022/01/08 21:18:48;;;;;;;25.42;11.80;;;;;;;3.82;67.88;93217.28;5023700;28;20026;-75
2022/01/08 21:21:13;;;;;;;35.03;13.68;;;;;;;3.80;67.74;93219.41;5022235;28;20033;-75
2022/01/08 21:23:40;;;;;;;42.22;17.77;;;;;;;3.76;67.50;93223.69;5023689;28;20030;-75
2022/01/08 21:26:05;;;;;;;35.35;15.18;;;;;;;3.73;67.61;93216.38;5023788;28;20220;-75
2022/01/08 21:28:31;;;;;;;37.63;15.93;;;;;;;3.73;67.63;93218.22;5038885;28;20034;-75
2022/01/08 21:30:57;;;;;;;21.63;10.05;;;;;;;3.70;68.31;93216.16;5023352;28;20025;-74
2022/01/08 21:33:22;;;;;;;20.30;9.50;;;;;;;3.65;68.84;93219.66;5023151;28;20105;-75
2022/01/08 21:35:54;;;;;;;21.15;9.50;;;;;;;3.59;69.28;93215.53;5023356;28;20033;-75
2022/01/08 21:38:21;;;;;;;24.98;10.70;;;;;;;3.60;69.64;93217.88;5022241;28;20032;-75
2022/01/08 21:40:46;;;;;;;28.48;10.45;;;;;;;3.59;69.02;93212.88;5023282;28;20052;-75
2022/01/08 21:43:12;;;;;;;27.05;13.02;;;;;;;3.57;68.90;93209.75;5023095;28;20127;-75
2022/01/08 21:45:38;;;;;;;28.20;12.98;;;;;;;3.58;68.76;93198.13;5023339;28;20024;-75
2022/01/08 21:48:06;;;;;;;38.55;15.82;;;;;;;3.60;68.80;93193.34;5023170;28;20021;-75
2022/01/08 21:50:32;;;;;;;39.60;17.10;;;;;;;3.61;68.66;93198.34;5023138;28;20022;-75
2022/01/08 21:52:57;;;;;;;44.97;19.30;;;;;;;3.64;68.72;93198.84;5022853;28;20362;-75
2022/01/08 21:55:23;;;;;;;59.55;24.73;;;;;;;3.67;68.13;93201.69;5022866;28;20025;-75
2022/01/08 21:57:48;;;;;;;55.75;21.70;;;;;;;3.67;68.94;93191.16;5023048;28;20022;-75
2022/01/08 22:00:16;;;;;;;57.83;19.92;;;;;;;3.57;69.39;93188.66;5022907;28;20220;-75
2022/01/08 22:02:42;;;;;;;50.15;20.58;;;;;;;3.64;69.49;93186.44;5038280;28;20021;-75
2022/01/08 22:05:08;;;;;;;51.25;20.17;;;;;;;3.70;69.34;93176.63;5022949;28;20189;-75
2022/01/08 22:07:34;;;;;;;46.38;18.80;;;;;;;3.75;69.09;93166.78;5022926;28;20028;-76
2022/01/08 22:10:00;;;;;;;44.55;18.65;;;;;;;3.78;68.88;93166.19;5022261;28;20026;-75
2022/01/08 22:12:26;;;;;;;44.80;17.95;;;;;;;3.80;68.81;93174.59;5022674;28;20054;-75
2022/01/08 22:14:51;;;;;;;31.77;14.68;;;;;;;3.82;68.85;93167.19;5022691;28;20201;-75
2022/01/08 22:17:18;;;;;;;46.03;18.88;;;;;;;3.87;68.62;93168.97;5022630;28;20331;-75
2022/01/08 22:19:46;;;;;;;35.05;17.23;;;;;;;3.90;69.22;93173.66;5022716;28;20022;-75
2022/01/08 22:22:12;;;;;;;34.95;15.80;;;;;;;3.88;68.83;93167.13;5022725;28;20022;-75
2022/01/08 22:24:38;;;;;;;32.55;15.48;;;;;;;3.92;68.82;93168.13;5022665;28;20033;-73
2022/01/08 22:27:04;;;;;;;32.25;14.07;;;;;;;4.00;68.52;93159.53;5022588;28;20076;-72
2022/01/08 22:29:29;;;;;;;30.58;13.57;;;;;;;4.01;68.52;93163.75;5022337;28;20053;-72
2022/01/08 22:31:54;;;;;;;32.08;13.63;;;;;;;4.06;68.30;93154.97;5022689;28;20026;-72
2022/01/08 22:34:20;;;;;;;33.83;14.02;;;;;;;4.09;68.25;93144.63;5022575;28;20025;-72
2022/01/08 22:36:46;;;;;;;34.63;15.30;;;;;;;4.11;68.27;93152.25;5022444;28;20029;-72
2022/01/08 22:39:13;;;;;;;32.50;12.88;;;;;;;4.13;68.19;93156.19;5022554;28;20017;-72
2022/01/08 22:41:39;;;;;;;21.90;11.60;;;;;;;4.07;68.37;93152.06;5022671;28;20212;-72
2022/01/08 22:44:05;;;;;;;23.58;10.52;;;;;;;3.95;68.85;93151.72;5022383;28;20025;-72
2022/01/08 22:46:30;;;;;;;22.48;9.75;;;;;;;3.82;69.65;93151.38;5022427;28;20041;-72
2022/01/08 22:48:58;;;;;;;24.55;8.88;;;;;;;3.76;70.24;93152.53;5022261;28;20054;-72
2022/01/08 22:51:24;;;;;;;22.67;10.63;;;;;;;3.73;70.28;93147.84;5022241;28;20017;-72
2022/01/08 22:53:50;;;;;;;25.20;11.90;;;;;;;3.72;70.55;93138.34;5022297;28;20021;-72
2022/01/08 22:56:15;;;;;;;23.33;10.68;;;;;;;3.75;70.63;93143.06;5022275;28;20025;-72
2022/01/08 22:58:41;;;;;;;20.77;9.45;;;;;;;3.84;70.29;93132.63;5022201;28;20097;-71
2022/01/08 23:01:06;;;;;;;21.75;10.02;;;;;;;3.90;70.07;93135.97;5022272;28;20018;-72
2022/01/08 23:03:33;;;;;;;22.90;10.27;;;;;;;3.94;69.75;93124.56;5022254;28;20017;-72
2022/01/08 23:05:59;;;;;;;20.08;10.43;;;;;;;3.88;69.85;93132.84;5022301;28;20021;-72
2022/01/08 23:08:30;;;;;;;17.90;8.88;;;;;;;3.87;70.26;93120.72;5022049;28;20022;-72
2022/01/08 23:10:57;;;;;;;24.38;10.43;;;;;;;3.85;70.36;93123.69;5021887;28;20025;-72
2022/01/08 23:13:22;;;;;;;20.23;9.18;;;;;;;3.89;70.28;93118.59;5021926;28;20133;-72
2022/01/08 23:15:48;;;;;;;21.60;10.02;;;;;;;3.96;70.18;93119.00;5020297;28;20030;-70
2022/01/08 23:18:14;;;;;;;23.05;9.63;;;;;;;3.97;70.17;93117.94;5020587;28;20029;-71
2022/01/08 23:20:44;;;;;;;22.08;9.95;;;;;;;3.98;69.85;93117.63;5037377;28;20056;-71
2022/01/08 23:23:10;;;;;;;22.52;10.88;;;;;;;4.04;69.43;93115.72;5024959;28;20018;-71
2022/01/08 23:25:35;;;;;;;22.02;10.45;;;;;;;4.07;68.85;93109.88;5025661;28;20343;-71
2022/01/08 23:28:01;;;;;;;17.55;9.38;;;;;;;4.09;68.90;93107.72;5025466;28;20037;-71
2022/01/08 23:30:27;;;;;;;22.27;10.25;;;;;;;4.06;69.05;93113.56;5025612;28;20311;-71
2022/01/08 23:32:53;;;;;;;22.95;10.32;;;;;;;4.04;69.18;93109.66;5024869;28;20018;-72
2022/01/08 23:35:19;;;;;;;22.80;10.85;;;;;;;4.04;69.05;93102.53;5025416;28;20039;-72
2022/01/08 23:37:45;;;;;;;20.25;10.55;;;;;;;4.02;69.15;93097.53;5025497;28;20068;-72
2022/01/08 23:40:11;;;;;;;21.85;10.43;;;;;;;3.99;69.30;93094.72;5025451;28;20308;-72
2022/01/08 23:42:37;;;;;;;21.27;10.30;;;;;;;3.96;69.25;93090.78;5025437;28;20049;-72
2022/01/08 23:45:05;;;;;;;18.63;10.90;;;;;;;3.99;69.28;93092.06;5025350;28;20097;-72